| time (UTC) | temp F | wind direction | speed MPH | gust MPH | rain 1hr in | rain 24hr in | rain mn in | humidity % | barometer mb |
| 20260505003549 | 46 | 82 | 5.0 | 10.0 | 0.00 | 0.01 | 0.01 | 65 | 1012.0 |
| 20260505003053 | 47 | 67 | 5.0 | 11.0 | 0.00 | 0.01 | 0.01 | 66 | 1011.7 |
| 20260505002549 | 47 | 98 | 6.0 | 11.0 | 0.00 | 0.01 | 0.01 | 64 | 1011.7 |
| 20260505002050 | 48 | 89 | 4.0 | 10.0 | 0.00 | 0.01 | 0.01 | 61 | 1011.6 |
| 20260505001604 | 48 | 82 | 4.0 | 10.0 | 0.00 | 0.01 | 0.01 | 59 | 1011.6 |
| 20260505001049 | 48 | 91 | 2.0 | 6.0 | 0.00 | 0.01 | 0.01 | 57 | 1011.7 |
| 20260505000549 | 48 | 308 | 2.0 | 5.0 | 0.00 | 0.01 | 0.01 | 57 | 1011.5 |
| 20260505000104 | 49 | 271 | 2.0 | 5.0 | 0.00 | 0.01 | 0.01 | 57 | 1011.6 |
| 20260504235548 | 49 | 240 | 1.0 | 5.0 | 0.00 | 0.01 | 0.01 | 57 | 1011.5 |
| 20260504235051 | 48 | 212 | 2.0 | 10.0 | 0.00 | 0.01 | 0.01 | 57 | 1011.6 |
| 20260504234550 | 48 | 270 | 4.0 | 11.0 | 0.00 | 0.01 | 0.01 | 57 | 1011.6 |
| 20260504234047 | 49 | 242 | 6.0 | 11.0 | 0.00 | 0.01 | 0.01 | 57 | 1011.8 |
| 20260504233547 | 48 | 283 | 4.0 | 9.0 | 0.00 | 0.01 | 0.01 | 58 | 1011.6 |
| 20260504233102 | 48 | 302 | 4.0 | 12.0 | 0.00 | 0.01 | 0.01 | 59 | 1011.5 |
| 20260504232547 | 47 | 279 | 6.0 | 12.0 | 0.00 | 0.01 | 0.01 | 60 | 1011.6 |
| 20260504232049 | 46 | 158 | 5.0 | 15.0 | 0.00 | 0.01 | 0.01 | 61 | 1011.7 |
| 20260504231547 | 46 | 304 | 3.0 | 11.0 | 0.00 | 0.01 | 0.01 | 62 | 1011.9 |
| 20260504231048 | 46 | 218 | 2.0 | 11.0 | 0.00 | 0.01 | 0.01 | 63 | 1011.8 |
| 20260504230548 | 46 | 55 | 0.0 | 2.0 | 0.00 | 0.01 | 0.01 | 67 | 1011.7 |
| 20260504230046 | 46 | 82 | 0.0 | 2.0 | 0.00 | 0.01 | 0.01 | 69 | 1011.5 |
| 20260504225549 | 46 | 72 | 0.0 | 2.0 | 0.00 | 0.01 | 0.01 | 69 | 1011.2 |
| 20260504225045 | 46 | 149 | 0.0 | 4.0 | 0.01 | 0.01 | 0.01 | 68 | 1011.2 |
| 20260504224546 | 45 | 170 | 1.0 | 7.0 | 0.01 | 0.01 | 0.01 | 68 | 1011.1 |
| 20260504224045 | 45 | 239 | 1.0 | 10.0 | 0.01 | 0.01 | 0.01 | 67 | 1011.2 |
| 20260504223545 | 45 | 257 | 1.0 | 13.0 | 0.01 | 0.01 | 0.01 | 70 | 1011.5 |
| 20260504223047 | 44 | 252 | 5.0 | 13.0 | 0.01 | 0.01 | 0.01 | 71 | 1011.5 |
| 20260504222549 | 44 | 272 | 4.0 | 9.0 | 0.01 | 0.01 | 0.01 | 76 | 1011.7 |
| 20260504222047 | 44 | 281 | 3.0 | 9.0 | 0.01 | 0.01 | 0.01 | 77 | 1012.0 |
| 20260504221544 | 43 | 284 | 2.0 | 9.0 | 0.01 | 0.01 | 0.01 | 80 | 1012.1 |
| 20260504221044 | 43 | 291 | 3.0 | 9.0 | 0.01 | 0.01 | 0.01 | 79 | 1012.2 |
| 20260504220543 | 43 | 311 | 3.0 | 11.0 | 0.01 | 0.01 | 0.01 | 78 | 1012.3 |
| 20260504220042 | 44 | 260 | 5.0 | 13.0 | 0.01 | 0.01 | 0.01 | 76 | 1012.4 |
| 20260504215541 | 46 | 273 | 5.0 | 15.0 | 0.01 | 0.01 | 0.01 | 69 | 1012.6 |
| 20260504215040 | 48 | 289 | 4.0 | 16.0 | 0.00 | 0.00 | 0.00 | 57 | 1012.7 |
| 20260504214541 | 49 | 310 | 6.0 | 16.0 | 0.00 | 0.00 | 0.00 | 49 | 1012.4 |
| 20260504214040 | 49 | 249 | 2.0 | 11.0 | 0.00 | 0.00 | 0.00 | 48 | 1011.7 |
| 20260504213539 | 50 | 309 | 5.0 | 11.0 | 0.00 | 0.00 | 0.00 | 47 | 1011.0 |
| 20260504213039 | 51 | 109 | 5.0 | 13.0 | 0.00 | 0.00 | 0.00 | 43 | 1011.1 |
| 20260504212540 | 54 | 89 | 3.0 | 11.0 | 0.00 | 0.00 | 0.00 | 39 | 1011.1 |
| 20260504212040 | 55 | 142 | 7.0 | 11.0 | 0.00 | 0.00 | 0.00 | 31 | 1010.9 |
| 20260504211539 | 55 | 288 | 0.0 | 8.0 | 0.00 | 0.00 | 0.00 | 32 | 1010.7 |
| 20260504211040 | 55 | 330 | 1.0 | 8.0 | 0.00 | 0.00 | 0.00 | 33 | 1010.7 |
| 20260504210538 | 55 | 201 | 1.0 | 7.0 | 0.00 | 0.00 | 0.00 | 33 | 1010.6 |
| 20260504210038 | 55 | 162 | 2.0 | 14.0 | 0.00 | 0.00 | 0.00 | 34 | 1010.8 |
| 20260504205541 | 55 | 245 | 6.0 | 14.0 | 0.00 | 0.00 | 0.00 | 34 | 1010.8 |
| 20260504205036 | 56 | 351 | 2.0 | 11.0 | 0.00 | 0.00 | 0.00 | 34 | 1010.9 |
| 20260504204536 | 56 | 246 | 3.0 | 19.0 | 0.00 | 0.00 | 0.00 | 34 | 1010.9 |
| 20260504204036 | 56 | 300 | 4.0 | 19.0 | 0.00 | 0.00 | 0.00 | 35 | 1010.8 |
| 20260504203537 | 56 | 268 | 7.0 | 15.0 | 0.00 | 0.00 | 0.00 | 34 | 1010.9 |
| 20260504203034 | 55 | 310 | 9.0 | 15.0 | 0.00 | 0.00 | 0.00 | 35 | 1010.9 |
| 20260504202535 | 55 | 332 | 4.0 | 15.0 | 0.00 | 0.00 | 0.00 | 38 | 1011.0 |
| 20260504202034 | 54 | 308 | 5.0 | 15.0 | 0.00 | 0.00 | 0.00 | 40 | 1011.1 |
| 20260504201530 | 54 | 245 | 8.0 | 22.0 | 0.00 | 0.00 | 0.00 | 39 | 1011.3 |
| 20260504201029 | 53 | 298 | 8.0 | 14.0 | 0.00 | 0.00 | 0.00 | 41 | 1011.3 |
| 20260504200530 | 53 | 276 | 4.0 | 10.0 | 0.00 | 0.00 | 0.00 | 43 | 1011.5 |
| 20260504200029 | 52 | 322 | 6.0 | 10.0 | 0.00 | 0.00 | 0.00 | 46 | 1011.7 |
| 20260504195527 | 52 | 103 | 5.0 | 9.0 | 0.00 | 0.00 | 0.00 | 46 | 1011.8 |
| 20260504195027 | 50 | 217 | 1.0 | 10.0 | 0.00 | 0.00 | 0.00 | 51 | 1012.1 |
| 20260504194531 | 49 | 305 | 3.0 | 10.0 | 0.00 | 0.00 | 0.00 | 50 | 1012.2 |
| 20260504194026 | 49 | 293 | 2.0 | 9.0 | 0.00 | 0.00 | 0.00 | 49 | 1012.5 |
| 20260504193527 | 48 | 266 | 3.0 | 9.0 | 0.00 | 0.00 | 0.00 | 50 | 1012.5 |
| 20260504193027 | 48 | 302 | 2.0 | 12.0 | 0.00 | 0.00 | 0.00 | 50 | 1012.5 |
| 20260504192526 | 48 | 271 | 3.0 | 12.0 | 0.00 | 0.00 | 0.00 | 51 | 1012.6 |
| 20260504192026 | 48 | 146 | 3.0 | 10.0 | 0.00 | 0.00 | 0.00 | 50 | 1012.5 |
| 20260504191525 | 49 | 297 | 2.0 | 12.0 | 0.00 | 0.00 | 0.00 | 49 | 1012.6 |
| 20260504191025 | 50 | 301 | 5.0 | 12.0 | 0.00 | 0.00 | 0.00 | 46 | 1012.6 |
| 20260504190525 | 50 | 278 | 5.0 | 9.0 | 0.00 | 0.00 | 0.00 | 46 | 1012.3 |
| 20260504190026 | 50 | 263 | 2.0 | 15.0 | 0.00 | 0.00 | 0.00 | 43 | 1012.2 |
| 20260504185524 | 50 | 203 | 6.0 | 15.0 | 0.00 | 0.00 | 0.00 | 41 | 1012.2 |
| 20260504185024 | 50 | 354 | 5.0 | 13.0 | 0.00 | 0.00 | 0.00 | 39 | 1012.0 |
| 20260504184525 | 51 | 311 | 8.0 | 17.0 | 0.00 | 0.00 | 0.00 | 38 | 1011.9 |
| 20260504184023 | 51 | 241 | 10.0 | 19.0 | 0.00 | 0.00 | 0.00 | 38 | 1011.9 |
| 20260504183524 | 52 | 300 | 5.0 | 14.0 | 0.00 | 0.00 | 0.00 | 42 | 1011.7 |
| 20260504183023 | 52 | 260 | 7.0 | 14.0 | 0.00 | 0.00 | 0.00 | 41 | 1011.8 |
| 20260504182521 | 52 | 331 | 6.0 | 15.0 | 0.00 | 0.00 | 0.00 | 42 | 1012.0 |
| 20260504182023 | 52 | 267 | 4.0 | 15.0 | 0.00 | 0.00 | 0.00 | 42 | 1012.0 |
| 20260504181521 | 52 | 264 | 8.0 | 19.0 | 0.00 | 0.00 | 0.00 | 42 | 1012.0 |
| 20260504181021 | 52 | 287 | 6.0 | 19.0 | 0.00 | 0.00 | 0.00 | 42 | 1012.0 |
| 20260504180519 | 52 | 316 | 5.0 | 14.0 | 0.00 | 0.00 | 0.00 | 42 | 1012.2 |
| 20260504180019 | 52 | 327 | 3.0 | 14.0 | 0.00 | 0.00 | 0.00 | 41 | 1012.3 |
| 20260504175518 | 52 | 295 | 6.0 | 14.0 | 0.00 | 0.00 | 0.00 | 40 | 1012.4 |
| 20260504175020 | 52 | 284 | 6.0 | 13.0 | 0.00 | 0.00 | 0.00 | 40 | 1012.5 |
| 20260504174516 | 52 | 257 | 5.0 | 13.0 | 0.00 | 0.00 | 0.00 | 40 | 1012.5 |
| 20260504174015 | 52 | 257 | 7.0 | 16.0 | 0.00 | 0.00 | 0.00 | 40 | 1012.7 |
| 20260504173515 | 52 | 231 | 9.0 | 16.0 | 0.00 | 0.00 | 0.00 | 40 | 1012.7 |
| 20260504173018 | 52 | 274 | 8.0 | 18.0 | 0.00 | 0.00 | 0.00 | 41 | 1012.9 |
| 20260504172513 | 51 | 314 | 8.0 | 18.0 | 0.00 | 0.00 | 0.00 | 41 | 1012.9 |
| 20260504172014 | 51 | 280 | 4.0 | 14.0 | 0.00 | 0.00 | 0.00 | 42 | 1013.1 |
| 20260504171517 | 51 | 296 | 8.0 | 14.0 | 0.00 | 0.00 | 0.00 | 40 | 1013.1 |
| 20260504171012 | 51 | 226 | 3.0 | 6.0 | 0.00 | 0.00 | 0.00 | 41 | 1013.1 |
| 20260504170511 | 51 | 308 | 1.0 | 14.0 | 0.00 | 0.00 | 0.00 | 42 | 1013.2 |
| 20260504160110 | 48 | 46 | 6.0 | 10.0 | 0.00 | 0.00 | 0.00 | 48 | 1013.4 |
| 20260504151050 | 41 | 326 | 0.0 | 3.0 | 0.00 | 0.00 | 0.00 | 64 | 1014.2 |
| 20260504150550 | 41 | 319 | 1.0 | 2.0 | 0.00 | 0.00 | 0.00 | 64 | 1014.2 |
| 20260504141039 | 39 | 263 | 1.0 | 4.0 | 0.00 | 0.00 | 0.00 | 63 | 1015.0 |
| 20260504140539 | 38 | 271 | 1.0 | 3.0 | 0.00 | 0.00 | 0.00 | 64 | 1014.9 |
| 20260504130534 | 34 | 312 | 1.0 | 4.0 | 0.00 | 0.00 | 0.00 | 65 | 1014.7 |
| 20260504110525 | 30 | 295 | 1.0 | 3.0 | 0.00 | 0.00 | 0.00 | 70 | 1014.2 |
| 20260504100519 | 31 | 278 | 1.0 | 6.0 | 0.00 | 0.00 | 0.00 | 68 | 1014.3 |
| 20260504081508 | 32 | 248 | 3.0 | 5.0 | 0.00 | 0.00 | 0.00 | 69 | 1015.2 |
| 20260504081005 | 32 | 284 | 3.0 | 5.0 | 0.00 | 0.00 | 0.00 | 69 | 1015.2 |
| 20260504080504 | 32 | 284 | 1.0 | 5.0 | 0.00 | 0.00 | 0.00 | 69 | 1015.3 |
| 20260504050542 | 38 | 277 | 2.0 | 7.0 | 0.00 | 0.00 | 0.00 | 58 | 1016.5 |
| 20260504045543 | 39 | 300 | 2.0 | 6.0 | 0.00 | 0.00 | 0.00 | 57 | 1016.5 |
| 20260504045039 | 40 | 239 | 2.0 | 6.0 | 0.00 | 0.00 | 0.00 | 56 | 1016.5 |
| 20260504044539 | 40 | 266 | 3.0 | 8.0 | 0.00 | 0.00 | 0.00 | 55 | 1016.5 |
| 20260504044039 | 41 | 274 | 3.0 | 8.0 | 0.00 | 0.00 | 0.00 | 55 | 1016.6 |
| 20260504043539 | 41 | 302 | 2.0 | 7.0 | 0.00 | 0.00 | 0.00 | 54 | 1016.6 |
| 20260504043047 | 41 | 245 | 4.0 | 8.0 | 0.00 | 0.00 | 0.00 | 54 | 1016.6 |
| 20260504042540 | 41 | 280 | 4.0 | 8.0 | 0.00 | 0.00 | 0.00 | 54 | 1016.6 |
| 20260504042042 | 41 | 276 | 3.0 | 6.0 | 0.00 | 0.00 | 0.00 | 55 | 1016.7 |
| 20260504041539 | 41 | 271 | 2.0 | 7.0 | 0.00 | 0.00 | 0.00 | 55 | 1016.6 |
| 20260504041038 | 41 | 252 | 4.0 | 7.0 | 0.00 | 0.00 | 0.00 | 55 | 1016.6 |
| 20260504040538 | 41 | 300 | 4.0 | 8.0 | 0.00 | 0.00 | 0.00 | 55 | 1016.6 |
| 20260504040036 | 41 | 266 | 3.0 | 8.0 | 0.00 | 0.00 | 0.00 | 54 | 1016.7 |
| 20260504035536 | 41 | 269 | 2.0 | 4.0 | 0.00 | 0.00 | 0.00 | 56 | 1016.6 |
| 20260504035036 | 40 | 278 | 1.0 | 4.0 | 0.00 | 0.00 | 0.00 | 57 | 1016.7 |
| 20260504034536 | 41 | 283 | 2.0 | 4.0 | 0.00 | 0.00 | 0.00 | 57 | 1016.7 |
| 20260504034035 | 41 | 284 | 2.0 | 4.0 | 0.00 | 0.00 | 0.00 | 56 | 1016.6 |
| 20260504033538 | 42 | 277 | 1.0 | 6.0 | 0.00 | 0.00 | 0.00 | 55 | 1016.6 |
| 20260504033037 | 42 | 267 | 1.0 | 6.0 | 0.00 | 0.00 | 0.00 | 55 | 1016.8 |
| 20260504032535 | 42 | 259 | 1.0 | 4.0 | 0.00 | 0.00 | 0.00 | 55 | 1016.8 |
| 20260504032035 | 42 | 231 | 2.0 | 4.0 | 0.00 | 0.00 | 0.00 | 54 | 1016.8 |
| 20260504031540 | 43 | 281 | 2.0 | 7.0 | 0.00 | 0.00 | 0.00 | 54 | 1016.7 |
| 20260504031036 | 43 | 284 | 3.0 | 7.0 | 0.00 | 0.00 | 0.00 | 52 | 1016.7 |
| 20260504030535 | 44 | 285 | 2.0 | 6.0 | 0.00 | 0.00 | 0.00 | 50 | 1016.6 |
| 20260504030034 | 45 | 253 | 2.0 | 7.0 | 0.00 | 0.00 | 0.00 | 49 | 1016.5 |
| 20260504025534 | 45 | 253 | 3.0 | 10.0 | 0.00 | 0.00 | 0.00 | 49 | 1016.5 |
| 20260504025034 | 45 | 291 | 4.0 | 6.0 | 0.00 | 0.00 | 0.00 | 50 | 1016.7 |
| 20260504024536 | 45 | 269 | 3.0 | 9.0 | 0.00 | 0.00 | 0.00 | 49 | 1016.5 |
| 20260504024033 | 45 | 280 | 5.0 | 9.0 | 0.00 | 0.00 | 0.00 | 50 | 1016.4 |
| 20260504023533 | 44 | 278 | 3.0 | 7.0 | 0.00 | 0.00 | 0.00 | 51 | 1016.4 |
| 20260504023033 | 44 | 273 | 2.0 | 5.0 | 0.00 | 0.00 | 0.00 | 52 | 1016.3 |
| 20260504022533 | 44 | 280 | 2.0 | 4.0 | 0.00 | 0.00 | 0.00 | 51 | 1016.3 |
| 20260504022033 | 45 | 287 | 2.0 | 4.0 | 0.00 | 0.00 | 0.00 | 50 | 1016.2 |
| 20260504021533 | 45 | 273 | 1.0 | 4.0 | 0.00 | 0.00 | 0.00 | 49 | 1016.2 |
| 20260504021034 | 45 | 283 | 1.0 | 4.0 | 0.00 | 0.00 | 0.00 | 50 | 1016.1 |
| 20260504020532 | 45 | 286 | 1.0 | 4.0 | 0.00 | 0.00 | 0.00 | 51 | 1016.1 |
| 20260504020033 | 45 | 261 | 1.0 | 3.0 | 0.00 | 0.00 | 0.00 | 51 | 1016.0 |
| 20260504015532 | 45 | 311 | 1.0 | 3.0 | 0.00 | 0.00 | 0.00 | 51 | 1016.1 |
| 20260504015032 | 46 | 281 | 1.0 | 3.0 | 0.00 | 0.00 | 0.00 | 50 | 1016.0 |
| 20260504014538 | 47 | 273 | 1.0 | 3.0 | 0.00 | 0.00 | 0.00 | 49 | 1015.8 |
| 20260504014032 | 47 | 264 | 1.0 | 3.0 | 0.00 | 0.00 | 0.00 | 48 | 1015.9 |
| 20260504013530 | 48 | 288 | 1.0 | 3.0 | 0.00 | 0.00 | 0.00 | 46 | 1015.8 |
| 20260504013030 | 49 | 257 | 0.0 | 3.0 | 0.00 | 0.00 | 0.00 | 43 | 1015.8 |
| 20260504012533 | 49 | 288 | 0.0 | 2.0 | 0.00 | 0.00 | 0.00 | 42 | 1015.8 |
| 20260504012033 | 50 | 272 | 0.0 | 1.0 | 0.00 | 0.00 | 0.00 | 40 | 1015.8 |
| 20260504011530 | 50 | 172 | 0.0 | 2.0 | 0.00 | 0.00 | 0.00 | 39 | 1015.8 |
| 20260504011029 | 50 | 218 | 0.0 | 2.0 | 0.00 | 0.00 | 0.00 | 38 | 1015.7 |
| 20260504010529 | 51 | 263 | 0.0 | 2.0 | 0.00 | 0.00 | 0.00 | 39 | 1015.9 |
| 20260504010029 | 51 | 218 | 0.0 | 2.0 | 0.00 | 0.00 | 0.00 | 38 | 1015.9 |
| 20260504005529 | 51 | 245 | 0.0 | 4.0 | 0.00 | 0.00 | 0.00 | 37 | 1015.9 |
| 20260504005029 | 51 | 197 | 0.0 | 4.0 | 0.00 | 0.00 | 0.00 | 37 | 1015.9 |
| 20260504004529 | 52 | 250 | 0.0 | 6.0 | 0.00 | 0.00 | 0.00 | 36 | 1016.0 |